CMA-CGM Fort Saint Pierre — FQFM — position and weather

sailwx.info

Track history (hours):
 
Tides and Currents Weather Stations Pressure Air Temp Water Temp Dewpoint Dewpoint Depression Visibility Wind Speed Wind Dir Waves Ship Positions

CMA-CGM Fort Saint Pierre

Last reported at 2016-Jul-31 02:34 UTC. Time now 2016-Jul-31 03:30 UTC.
Position N 53°44' E 009°27'.

Length 197 m; beam 30 m.

Type: Ship (hazmat cat A). MMSI: 226328000.

Date/timePositionNaut miles runAvg speedWind from/ knotsBaromVisibWave heightAir tempDewpointWater temp
2016-Jul-31 02:34N 53°44' E 009°27'1313.5
2016-Jul-31 01:34N 53°34' E 009°43'7 7.2
2016-Jul-31 00:32N 53°32' E 009°55'0 0.0
2016-Jul-30 22:32N 53°32' E 009°55'0 0.0
2016-Jul-30 21:32N 53°32' E 009°55'0 0.0
2016-Jul-30 20:32N 53°32' E 009°55'0 0.0
2016-Jul-30 19:32N 53°32' E 009°55'0 0.0
2016-Jul-30 18:32N 53°32' E 009°55'0 0.0
2016-Jul-30 17:32N 53°32' E 009°55'0 0.0
2016-Jul-30 16:32N 53°32' E 009°55'0 0.0
2016-Jul-30 15:32N 53°32' E 009°55'0 0.0
2016-Jul-30 14:32N 53°32' E 009°55'0 0.0
2016-Jul-30 13:32N 53°32' E 009°55'0 0.0
2016-Jul-30 12:32N 53°32' E 009°55'0 0.0
2016-Jul-30 11:32N 53°32' E 009°55'0 0.0
2016-Jul-30 10:32N 53°32' E 009°55'0 0.0
2016-Jul-30 09:32N 53°32' E 009°55'0 0.0
2016-Jul-30 08:32N 53°32' E 009°55'0 0.0
2016-Jul-30 07:32N 53°32' E 009°55'0 0.0
2016-Jul-30 06:32N 53°32' E 009°55'0 0.0
2016-Jul-30 05:32N 53°32' E 009°55'0 0.0
2016-Jul-30 04:32N 53°32' E 009°55'1 0.7
2016-Jul-30 03:33N 53°32' E 009°54'8 8.0
2016-Jul-30 02:34N 53°34' E 009°41'1111.5
2016-Jul-30 01:34N 53°43' E 009°28'1312.6
2016-Jul-30 00:33N 53°53' E 009°15'1212.1
2016-Jul-29 23:33N 53°51' E 008°55'1312.5
2016-Jul-29 22:30N 53°58' E 008°36'1414.9
2016-Jul-29 21:33N 53°60' E 008°12'1313.1
2016-Jul-29 20:33N 53°57' E 007°50'1615.9
2016-Jul-29 19:34N 53°53' E 007°24'1615.9
2016-Jul-29 18:33N 53°49' E 006°58'1615.9
2016-Jul-29 17:33N 53°46' E 006°32'1616.0
2016-Jul-29 16:33N 53°42' E 006°06'1616.3
2016-Jul-29 15:33N 53°37' E 005°39'2019.9
2016-Jul-29 14:34N 53°30' E 005°08'1919.4
2016-Jul-29 13:33N 53°19' E 004°41'2020.1
2016-Jul-29 12:33N 53°02' E 004°25'2019.9
2016-Jul-29 11:33N 52°45' E 004°08'1919.3
2016-Jul-29 10:34N 52°27' E 003°54'1918.7
2016-Jul-29 09:34N 52°09' E 003°55'1212.4
2016-Jul-29 08:33N 51°59' E 004°07'10 9.8
2016-Jul-29 07:33N 51°54' E 004°20'4 3.5
2016-Jul-29 06:32N 51°54' E 004°26'0 0.0
2016-Jul-29 05:32N 51°54' E 004°26'0 0.0
2016-Jul-29 04:32N 51°54' E 004°26'0 0.0
2016-Jul-29 03:32N 51°54' E 004°26'0 0.0
2016-Jul-29 02:32N 51°54' E 004°26'0 0.0
2016-Jul-29 01:32N 51°54' E 004°26'0 0.0
2016-Jul-29 00:32N 51°54' E 004°26'0 0.0
2016-Jul-28 23:32N 51°54' E 004°26'0 0.0
2016-Jul-28 22:32N 51°54' E 004°26'0 0.0
2016-Jul-28 21:32N 51°54' E 004°26'0 0.0
2016-Jul-28 20:31N 51°54' E 004°26'0 0.0
2016-Jul-28 19:31N 51°54' E 004°26'0 0.0
2016-Jul-28 18:31N 51°54' E 004°26'0 0.0
2016-Jul-28 17:31N 51°54' E 004°26'0 0.0
2016-Jul-28 16:31N 51°54' E 004°26'0 0.0
2016-Jul-28 15:31N 51°54' E 004°26'0 0.0
2016-Jul-28 14:31N 51°54' E 004°26'0 0.0
2016-Jul-28 13:31N 51°54' E 004°26'0 0.0
2016-Jul-28 12:31N 51°54' E 004°26'0 0.0
2016-Jul-28 11:31N 51°54' E 004°26'0 0.0
2016-Jul-28 10:31N 51°54' E 004°26'0 0.0
2016-Jul-28 09:31N 51°54' E 004°26'0 0.0
2016-Jul-28 08:31N 51°54' E 004°26'0 0.0
2016-Jul-28 07:28N 51°54' E 004°26'0 0.0
2016-Jul-28 06:31N 51°54' E 004°26'0 0.0
2016-Jul-28 05:31N 51°54' E 004°26'0 0.0
2016-Jul-28 04:31N 51°54' E 004°26'1 1.2
2016-Jul-28 03:34N 51°54' E 004°24'8 8.0
2016-Jul-28 02:34N 51°56' E 004°12'9 9.3
2016-Jul-28 01:34N 52°00' E 003°58'10 9.7
2016-Jul-28 00:34N 51°58' E 003°43'1110.5
2016-Jul-27 23:33N 51°56' E 003°26'1110.4
2016-Jul-27 22:30N 51°52' E 003°09'1110.1
2016-Jul-27 21:26N 51°50' E 002°52'1010.1
2016-Jul-27 20:29N 51°46' E 002°38'1010.3
2016-Jul-27 19:32N 51°39' E 002°27'1010.3
2016-Jul-27 18:34N 51°31' E 002°16'1110.4
2016-Jul-27 17:33N 51°23' E 002°05'1010.4
2016-Jul-27 16:34N 51°16' E 001°54'1010.3
2016-Jul-27 15:34N 51°08' E 001°43'1010.3
2016-Jul-27 14:34N 51°00' E 001°33'57 8.9
2016-Jul-27 08:05N 50°22' E 000°25'5 9.3
2016-Jul-27 07:33N 50°21' E 000°17'10 9.4
2016-Jul-27 06:32N 50°18' E 000°03'9 9.7
2016-Jul-27 05:34N 50°16' W 000°11'1010.1
2016-Jul-27 04:33N 50°14' W 000°27'1111.3
2016-Jul-27 03:34N 50°11' W 000°44'3013.2
2016-Jul-27 01:15N 50°03' W 001°29'5113.2
2016-Jul-26 21:24N 49°51' W 002°46'1011.0
2016-Jul-26 20:32N 49°48' W 003°00'1010.5
2016-Jul-26 19:33N 49°44' W 003°15'51 9.9
2016-Jul-26 14:25N 49°27' W 004°29'1111.3
2016-Jul-26 13:29N 49°24' W 004°44'1111.6
2016-Jul-26 12:34N 49°23' W 005°01'1212.1
2016-Jul-26 11:33N 49°20' W 005°19'1212.4
2016-Jul-26 10:34N 49°17' W 005°37'1312.9
2016-Jul-26 09:32N 49°14' W 005°57'1717.2
2016-Jul-26 08:33N 49°11' W 006°22'2119.7
2016-Jul-26 07:31N 49°09' W 006°53'  
Track history (hours):
 
Tides and Currents Weather Stations Pressure Air Temp Water Temp Dewpoint Dewpoint Depression Visibility Wind Speed Wind Dir Waves Ship Positions

CMA-CGM Fort Saint Pierre

Last reported at 2016-Jul-31 02:34 UTC. Time now 2016-Jul-31 03:30 UTC.
Position N 53°44' E 009°27'.

Length 197 m; beam 30 m.

Type: Ship (hazmat cat A). MMSI: 226328000.

Date/timePositionNaut miles runAvg speedWind from/ knotsBaromVisibWave heightAir tempDewpointWater temp
2016-Jul-31 02:34N 53°44' E 009°27'1313.5
2016-Jul-31 01:34N 53°34' E 009°43'7 7.2
2016-Jul-31 00:32N 53°32' E 009°55'0 0.0
2016-Jul-30 22:32N 53°32' E 009°55'0 0.0
2016-Jul-30 21:32N 53°32' E 009°55'0 0.0
2016-Jul-30 20:32N 53°32' E 009°55'0 0.0
2016-Jul-30 19:32N 53°32' E 009°55'0 0.0
2016-Jul-30 18:32N 53°32' E 009°55'0 0.0
2016-Jul-30 17:32N 53°32' E 009°55'0 0.0
2016-Jul-30 16:32N 53°32' E 009°55'0 0.0
2016-Jul-30 15:32N 53°32' E 009°55'0 0.0
2016-Jul-30 14:32N 53°32' E 009°55'0 0.0
2016-Jul-30 13:32N 53°32' E 009°55'0 0.0
2016-Jul-30 12:32N 53°32' E 009°55'0 0.0
2016-Jul-30 11:32N 53°32' E 009°55'0 0.0
2016-Jul-30 10:32N 53°32' E 009°55'0 0.0
2016-Jul-30 09:32N 53°32' E 009°55'0 0.0
2016-Jul-30 08:32N 53°32' E 009°55'0 0.0
2016-Jul-30 07:32N 53°32' E 009°55'0 0.0
2016-Jul-30 06:32N 53°32' E 009°55'0 0.0
2016-Jul-30 05:32N 53°32' E 009°55'0 0.0
2016-Jul-30 04:32N 53°32' E 009°55'1 0.7
2016-Jul-30 03:33N 53°32' E 009°54'8 8.0
2016-Jul-30 02:34N 53°34' E 009°41'1111.5
2016-Jul-30 01:34N 53°43' E 009°28'1312.6
2016-Jul-30 00:33N 53°53' E 009°15'1212.1
2016-Jul-29 23:33N 53°51' E 008°55'1312.5
2016-Jul-29 22:30N 53°58' E 008°36'1414.9
2016-Jul-29 21:33N 53°60' E 008°12'1313.1
2016-Jul-29 20:33N 53°57' E 007°50'1615.9
2016-Jul-29 19:34N 53°53' E 007°24'1615.9
2016-Jul-29 18:33N 53°49' E 006°58'1615.9
2016-Jul-29 17:33N 53°46' E 006°32'1616.0
2016-Jul-29 16:33N 53°42' E 006°06'1616.3
2016-Jul-29 15:33N 53°37' E 005°39'2019.9
2016-Jul-29 14:34N 53°30' E 005°08'1919.4
2016-Jul-29 13:33N 53°19' E 004°41'2020.1
2016-Jul-29 12:33N 53°02' E 004°25'2019.9
2016-Jul-29 11:33N 52°45' E 004°08'1919.3
2016-Jul-29 10:34N 52°27' E 003°54'1918.7
2016-Jul-29 09:34N 52°09' E 003°55'1212.4
2016-Jul-29 08:33N 51°59' E 004°07'10 9.8
2016-Jul-29 07:33N 51°54' E 004°20'4 3.5
2016-Jul-29 06:32N 51°54' E 004°26'0 0.0
2016-Jul-29 05:32N 51°54' E 004°26'0 0.0
2016-Jul-29 04:32N 51°54' E 004°26'0 0.0
2016-Jul-29 03:32N 51°54' E 004°26'0 0.0
2016-Jul-29 02:32N 51°54' E 004°26'0 0.0
2016-Jul-29 01:32N 51°54' E 004°26'0 0.0
2016-Jul-29 00:32N 51°54' E 004°26'0 0.0
2016-Jul-28 23:32N 51°54' E 004°26'0 0.0
2016-Jul-28 22:32N 51°54' E 004°26'0 0.0
2016-Jul-28 21:32N 51°54' E 004°26'0 0.0
2016-Jul-28 20:31N 51°54' E 004°26'0 0.0
2016-Jul-28 19:31N 51°54' E 004°26'0 0.0
2016-Jul-28 18:31N 51°54' E 004°26'0 0.0
2016-Jul-28 17:31N 51°54' E 004°26'0 0.0
2016-Jul-28 16:31N 51°54' E 004°26'0 0.0
2016-Jul-28 15:31N 51°54' E 004°26'0 0.0
2016-Jul-28 14:31N 51°54' E 004°26'0 0.0
2016-Jul-28 13:31N 51°54' E 004°26'0 0.0
2016-Jul-28 12:31N 51°54' E 004°26'0 0.0
2016-Jul-28 11:31N 51°54' E 004°26'0 0.0
2016-Jul-28 10:31N 51°54' E 004°26'0 0.0
2016-Jul-28 09:31N 51°54' E 004°26'0 0.0
2016-Jul-28 08:31N 51°54' E 004°26'0 0.0
2016-Jul-28 07:28N 51°54' E 004°26'0 0.0
2016-Jul-28 06:31N 51°54' E 004°26'0 0.0
2016-Jul-28 05:31N 51°54' E 004°26'0 0.0
2016-Jul-28 04:31N 51°54' E 004°26'1 1.2
2016-Jul-28 03:34N 51°54' E 004°24'8 8.0
2016-Jul-28 02:34N 51°56' E 004°12'9 9.3
2016-Jul-28 01:34N 52°00' E 003°58'10 9.7
2016-Jul-28 00:34N 51°58' E 003°43'1110.5
2016-Jul-27 23:33N 51°56' E 003°26'1110.4
2016-Jul-27 22:30N 51°52' E 003°09'1110.1
2016-Jul-27 21:26N 51°50' E 002°52'1010.1
2016-Jul-27 20:29N 51°46' E 002°38'1010.3
2016-Jul-27 19:32N 51°39' E 002°27'1010.3
2016-Jul-27 18:34N 51°31' E 002°16'1110.4
2016-Jul-27 17:33N 51°23' E 002°05'1010.4
2016-Jul-27 16:34N 51°16' E 001°54'1010.3
2016-Jul-27 15:34N 51°08' E 001°43'1010.3
2016-Jul-27 14:34N 51°00' E 001°33'57 8.9
2016-Jul-27 08:05N 50°22' E 000°25'5 9.3
2016-Jul-27 07:33N 50°21' E 000°17'10 9.4
2016-Jul-27 06:32N 50°18' E 000°03'9 9.7
2016-Jul-27 05:34N 50°16' W 000°11'1010.1
2016-Jul-27 04:33N 50°14' W 000°27'1111.3
2016-Jul-27 03:34N 50°11' W 000°44'3013.2
2016-Jul-27 01:15N 50°03' W 001°29'5113.2
2016-Jul-26 21:24N 49°51' W 002°46'1011.0
2016-Jul-26 20:32N 49°48' W 003°00'1010.5
2016-Jul-26 19:33N 49°44' W 003°15'51 9.9
2016-Jul-26 14:25N 49°27' W 004°29'1111.3
2016-Jul-26 13:29N 49°24' W 004°44'1111.6
2016-Jul-26 12:34N 49°23' W 005°01'1212.1
2016-Jul-26 11:33N 49°20' W 005°19'1212.4
2016-Jul-26 10:34N 49°17' W 005°37'1312.9
2016-Jul-26 09:32N 49°14' W 005°57'1717.2
2016-Jul-26 08:33N 49°11' W 006°22'2119.7
2016-Jul-26 07:31N 49°09' W 006°53'  

Dump ship's entire track history